Flight Track Log - Related Links

Times and Time Zones

All times are in EDT time to prevent confusion due to time zone crossing. See the EJA370 flight status page for this flight to view local times or setup timezone preferences in your user account.

Time Position Orientation Groundspeed Altitude Reporting Facility
EDT Latitude Longitude Course Direction KTS MPH feet Rate Location/Type
Wed 02:36:22 PM 41.0333 -73.7167 304° West 178 205 2,600  Level New York TRACON
Wed 02:37:22 PM 41.0667 -73.7833 304° West 217 250 5,200 3,168 Climbing New York TRACON
Wed 02:38:27 PM 41.0500 -73.8667 255° West 265 305 9,200 3,900 Climbing New York TRACON
Wed 02:39:22 PM 41.0167 -73.9667 246° West 294 338 13,000 2,900 Climbing New York TRACON
Wed 02:40:27 PM 40.9833 -74.0833 249° West 349 402 15,000 952 Climbing New York TRACON
Wed 02:41:28 PM 40.9500 -74.2167 252° West 376 433 15,000 1,000 Level New York TRACON
Wed 02:42:27 PM 40.9333 -74.3500 261° West 381 438 17,000 1,622 Climbing New York TRACON
Wed 02:42:42 PM 40.9269 -74.3936 259° West 389 448 17,000  Level New York Center
Wed 02:43:42 PM 40.9253 -74.5089 269° West 394 453 17,000  Level New York Center
Wed 02:44:42 PM 40.9244 -74.6681 270° West 404 465 17,000  Level New York Center
Wed 02:45:43 PM 40.9219 -74.7997 269° West 397 457 17,000 504 Level New York Center
Wed 02:46:41 PM 40.9150 -74.9447 266° West 402 463 18,000 2,186 Climbing New York Center
Wed 02:47:41 PM 40.8886 -75.0942 257° West 397 457 21,300 3,322 Climbing New York Center
Wed 02:48:42 PM 40.8628 -75.2325 256° West 392 451 24,700 2,951 Climbing New York Center
Wed 02:49:43 PM 40.8394 -75.3544 256° West 392 451 27,300 2,132 Climbing New York Center
Wed 02:50:43 PM 40.8108 -75.4950 255° West 392 451 29,000 1,881 Climbing New York Center
Wed 02:51:41 PM 40.7819 -75.6411 255° West 403 464 31,000 1,866 Climbing New York Center
Wed 02:52:42 PM 40.7522 -75.8033 256° West 416 479 32,700 1,488 Climbing New York Center
Wed 02:53:42 PM 40.7208 -75.9544 255° West 422 486 34,000 1,210 Climbing New York Center
Wed 02:54:41 PM 40.6908 -76.1108 256° West 434 499 35,100 1,109 Climbing New York Center
Wed 02:55:41 PM 40.6689 -76.2733 260° West 446 513 36,200 1,200 Climbing New York Center
Wed 02:56:41 PM 40.6900 -76.4419 279° West 451 519 37,500 1,587 Climbing New York Center
Wed 02:57:42 PM 40.7097 -76.5969 280° West 451 519 39,400 1,636 Climbing New York Center
Wed 02:58:42 PM 40.7272 -76.7436 279° West 434 499 40,800 1,261 Climbing New York Center
Wed 02:59:41 PM 40.7450 -76.8878 279° West 416 479 41,900 1,008 Climbing New York Center
Wed 03:00:41 PM 40.7606 -77.0261 278° West 404 465 42,800 550 Climbing New York Center
Wed 03:01:41 PM 40.7764 -77.1619 279° West 392 451 43,000 99 Climbing New York Center
Wed 03:02:42 PM 40.7917 -77.3031 278° West 392 451 43,000  Level New York Center
Wed 03:03:42 PM 40.8072 -77.4308 279° West 392 451 43,000  Level New York Center
Wed 03:05:46 PM 40.8433 -77.7614 278° West 411 473 43,000  Level Cleveland Center
Wed 03:06:46 PM 40.8614 -77.9117 279° West 421 484 43,000  Level Cleveland Center
Wed 03:07:46 PM 40.8775 -78.0675 278° West 427 491 43,000  Level Cleveland Center
Wed 03:08:46 PM 40.8933 -78.2208 278° West 427 491 43,000  Level Cleveland Center
Wed 03:09:46 PM 40.9131 -78.3767 280° West 427 491 43,000  Level Cleveland Center
Wed 03:10:46 PM 40.9306 -78.5328 278° West 427 491 43,000  Level Cleveland Center
Wed 03:11:46 PM 40.9458 -78.6919 277° West 427 491 43,000  Level Cleveland Center
Wed 03:12:46 PM 40.9608 -78.8508 277° West 432 497 43,000  Level Cleveland Center
Wed 03:13:46 PM 40.9778 -79.0072 278° West 432 497 43,000  Level Cleveland Center
Wed 03:14:46 PM 40.9925 -79.1719 277° West 438 504 43,000  Level Cleveland Center
Wed 03:15:46 PM 41.0067 -79.3256 277° West 444 511 43,000  Level Cleveland Center
Wed 03:16:46 PM 41.0228 -79.4794 278° West 439 505 43,000  Level Cleveland Center
Wed 03:17:46 PM 41.0367 -79.6361 277° West 439 505 43,000  Level Cleveland Center
Wed 03:18:46 PM 41.0483 -79.7903 276° West 434 499 43,000  Level Cleveland Center
Wed 03:19:46 PM 41.0639 -79.9469 278° West 429 494 43,000  Level Cleveland Center
Wed 03:20:46 PM 41.0792 -80.0983 278° West 424 488 43,000  Level Cleveland Center
Wed 03:21:46 PM 41.0922 -80.2525 276° West 424 488 43,000  Level Cleveland Center
Wed 03:22:46 PM 41.1072 -80.4094 277° West 424 488 43,000  Level Cleveland Center
Wed 03:23:46 PM 41.1178 -80.5611 275° West 424 488 43,000  Level Cleveland Center
Wed 03:24:46 PM 41.1322 -80.7156 277° West 424 488 43,000  Level Cleveland Center
Wed 03:25:46 PM 41.1425 -80.8700 275° West 424 488 43,000  Level Cleveland Center
Wed 03:26:46 PM 41.1544 -81.0244 276° West 424 488 43,000  Level Cleveland Center
Wed 03:27:46 PM 41.1664 -81.1789 276° West 424 488 43,000  Level Cleveland Center
Wed 03:28:46 PM 41.1800 -81.3308 277° West 424 488 43,000  Level Cleveland Center
Wed 03:29:46 PM 41.1933 -81.4828 277° West 424 488 43,000  Level Cleveland Center
Wed 03:30:46 PM 41.2047 -81.6347 276° West 424 488 43,000  Level Cleveland Center
Wed 03:31:46 PM 41.2178 -81.7894 276° West 424 488 43,000  Level Cleveland Center
Wed 03:32:46 PM 41.2286 -81.9414 275° West 424 488 43,000  Level Cleveland Center
Wed 03:33:46 PM 41.2392 -82.0964 275° West 424 488 43,000  Level Cleveland Center
Wed 03:34:46 PM 41.2472 -82.2539 274° West 431 496 43,000  Level Cleveland Center
Wed 03:35:46 PM 41.2575 -82.4033 275° West 424 488 43,000  Level Cleveland Center
Wed 03:36:46 PM 41.2675 -82.5583 275° West 424 488 43,000  Level Cleveland Center
Wed 03:37:46 PM 41.2792 -82.7133 276° West 424 488 43,000  Level Cleveland Center
Wed 03:38:46 PM 41.2867 -82.8658 274° West 424 488 43,000  Level Cleveland Center
Wed 03:39:46 PM 41.2964 -83.0042 275° West 424 488 43,000  Level Cleveland Center
Wed 03:40:46 PM 41.3056 -83.1567 275° West 424 488 43,000  Level Cleveland Center
Wed 03:41:46 PM 41.3144 -83.3119 274° West 424 488 43,000  Level Cleveland Center
Wed 03:42:46 PM 41.3233 -83.4642 274° West 424 488 43,000  Level Cleveland Center
Wed 03:43:46 PM 41.3339 -83.6197 275° West 424 488 43,000  Level Cleveland Center
Wed 03:44:46 PM 41.3422 -83.7750 274° West 424 488 43,000  Level Cleveland Center
Wed 03:45:46 PM 41.3522 -83.9331 275° West 424 488 43,000  Level Cleveland Center
Wed 03:46:46 PM 41.3581 -84.0828 273° West 424 488 43,000  Level Cleveland Center
Wed 03:47:06 PM 41.3647 -84.1342 280° West 423 487 43,000  Level Chicago Center
Wed 03:48:08 PM 41.3719 -84.2878 274° West 418 481 43,000  Level Chicago Center
Wed 03:49:10 PM 41.3800 -84.4442 274° West 422 486 43,000  Level Chicago Center
Wed 03:50:12 PM 41.3897 -84.6308 274° West 423 487 43,000  Level Chicago Center
Wed 03:51:14 PM 41.3978 -84.7850 274° West 418 481 43,000  Level Chicago Center
Wed 03:52:16 PM 41.4039 -84.9392 273° West 417 480 43,000  Level Chicago Center
Wed 03:53:18 PM 41.4114 -85.0936 274° West 416 479 43,000  Level Chicago Center
Wed 03:54:20 PM 41.4175 -85.2483 273° West 416 479 43,000  Level Chicago Center
Wed 03:55:22 PM 41.4239 -85.4056 273° West 418 481 43,000  Level Chicago Center
Wed 03:56:24 PM 41.4314 -85.5625 274° West 418 481 43,000  Level Chicago Center
Wed 03:57:27 PM 41.4381 -85.7497 273° West 417 480 43,000  Level Chicago Center
Wed 03:58:29 PM 41.4442 -85.9050 273° West 420 483 43,000  Level Chicago Center
Wed 03:59:32 PM 41.4497 -86.0603 273° West 420 483 43,000  Level Chicago Center
Wed 04:00:33 PM 41.4550 -86.2128 273° West 415 478 43,000  Level Chicago Center
Wed 04:01:35 PM 41.4614 -86.3636 273° West 411 473 43,000  Level Chicago Center
Wed 04:02:37 PM 41.4656 -86.5156 272° West 410 472 43,000  Level Chicago Center
Wed 04:03:39 PM 41.4708 -86.6678 273° West 412 474 43,000  Level Chicago Center
Wed 04:04:41 PM 41.4764 -86.8472 272° West 410 472 43,000  Level Chicago Center
Wed 04:05:43 PM 41.4808 -86.9983 272° West 410 472 43,000  Level Chicago Center
Wed 04:06:45 PM 41.4844 -87.1506 272° West 413 475 43,000  Level Chicago Center
Wed 04:07:47 PM 41.4886 -87.3022 272° West 413 475 43,000  Level Chicago Center
Wed 04:08:49 PM 41.4936 -87.4861 272° West 415 478 43,000  Level Chicago Center
Wed 04:09:52 PM 41.4969 -87.6381 272° West 415 478 43,000  Level Chicago Center
Wed 04:10:54 PM 41.5000 -87.7900 272° West 414 476 43,000  Level Chicago Center
Wed 04:11:56 PM 41.5031 -87.9494 271° West 413 475 43,000  Level Chicago Center
Wed 04:12:00 PM 41.5030 -87.9538 271° West  Level FlightAware Approximate
Wed 04:12:58 PM 41.5078 -88.1047 272° West 416 479 43,000  Level Chicago Center
Wed 04:14:00 PM 41.5100 -88.2650 271° West 410 472 43,000  Level Chicago Center
Wed 04:15:02 PM 41.5119 -88.4175 271° West 417 480 43,000  Level Chicago Center
Wed 04:16:04 PM 41.5139 -88.5697 271° West 415 478 43,000  Level Chicago Center
Wed 04:18:08 PM 41.5178 -88.9044 271° West 414 476 43,000  Level Chicago Center
Wed 04:19:10 PM 41.5203 -89.0558 271° West 413 475 43,000  Level Chicago Center
Wed 04:20:12 PM 41.5214 -89.2019 271° West 409 471 43,000  Level Chicago Center
Wed 04:21:14 PM 41.5233 -89.3536 271° West 410 472 43,000  Level Chicago Center
Wed 04:22:17 PM 41.5250 -89.5331 271° West 407 468 43,000  Level Chicago Center
Wed 04:23:19 PM 41.5256 -89.6844 270° West 409 471 43,000  Level Chicago Center
Wed 04:24:21 PM 41.5264 -89.8378 270° West 410 472 43,000  Level Chicago Center
Wed 04:25:23 PM 41.5272 -89.9878 270° West 412 474 43,000  Level Chicago Center
Wed 04:26:25 PM 41.5278 -90.1444 270° West 417 480 43,000  Level Chicago Center
Wed 04:27:27 PM 41.5261 -90.3300 269° West 419 482 43,000  Level Chicago Center
Wed 04:28:29 PM 41.5261 -90.4803 270° West 414 476 43,000  Level Chicago Center
Wed 04:29:31 PM 41.5267 -90.6306 270° West 410 472 43,000  Level Chicago Center
Wed 04:30:33 PM 41.5261 -90.7817 270° West 409 471 43,000  Level Chicago Center
Wed 04:31:35 PM 41.5242 -90.9308 269° West 411 473 43,000  Level Chicago Center
Wed 04:32:37 PM 41.5228 -91.1106 269° West 408 470 43,000  Level Chicago Center
Wed 04:33:39 PM 41.5225 -91.2628 270° West 412 474 43,000  Level Chicago Center
Wed 04:34:42 PM 41.5208 -91.4119 269° West 407 468 43,000  Level Chicago Center
Wed 04:35:44 PM 41.5206 -91.5631 270° West 409 471 43,000  Level Chicago Center
Wed 04:36:46 PM 41.5161 -91.7125 268° West 407 468 43,000  Level Chicago Center
Wed 04:37:48 PM 41.5108 -91.8908 268° West 403 464 43,000  Level Chicago Center
Wed 04:38:50 PM 41.5047 -92.0411 267° West 406 467 43,000  Level Chicago Center
Wed 04:39:52 PM 41.4997 -92.1906 267° West 406 467 43,000  Level Chicago Center
Wed 04:40:54 PM 41.4942 -92.3389 267° West 404 465 43,000  Level Chicago Center
Wed 04:41:56 PM 41.4878 -92.5031 267° West 409 471 43,000  Level Chicago Center
Wed 04:42:58 PM 41.4814 -92.6494 267° West 402 463 43,000  Level Chicago Center
Wed 04:43:31 PM 41.4778 -92.7425 267° West 408 470 43,000  Level Minneapolis Center
Wed 04:44:33 PM 41.4719 -92.8919 267° West 408 470 43,000  Level Minneapolis Center
Wed 04:45:35 PM 41.4653 -93.0428 267° West 411 473 43,000  Level Minneapolis Center
Wed 04:46:38 PM 41.4575 -93.2217 267° West 408 470 43,000  Level Minneapolis Center
Wed 04:47:40 PM 41.4508 -93.3714 267° West 410 472 43,000  Level Minneapolis Center
Wed 04:48:42 PM 41.4428 -93.5219 266° West 411 473 43,000  Level Minneapolis Center
Wed 04:50:13 PM 41.4383 -93.7617 269° West 411 473 43,000  Level Chicago Center
Wed 04:50:46 PM 41.4403 -93.8206 273° West 410 472 43,000  Level Minneapolis Center
Wed 04:51:48 PM 41.4414 -94.0008 271° West 409 471 43,000  Level Minneapolis Center
Wed 04:52:50 PM 41.4408 -94.1547 270° West 417 480 43,000  Level Minneapolis Center
Wed 04:53:52 PM 41.4394 -94.3042 269° West 414 476 43,000  Level Minneapolis Center
Wed 04:54:54 PM 41.4392 -94.4553 270° West 408 470 43,000  Level Minneapolis Center
Wed 04:55:56 PM 41.4389 -94.6369 270° West 409 471 43,000  Level Minneapolis Center
Wed 04:56:58 PM 41.4403 -94.7906 271° West 413 475 43,000  Level Minneapolis Center
Wed 04:58:00 PM 41.4403 -94.9414 270° West 410 472 43,000  Level Minneapolis Center
Wed 04:59:03 PM 41.4392 -95.0911 269° West 408 470 43,000  Level Minneapolis Center
Wed 05:00:05 PM 41.4383 -95.2428 270° West 409 471 43,000  Level Minneapolis Center
Wed 05:01:07 PM 41.4361 -95.3936 269° West 409 471 43,000  Level Minneapolis Center
Wed 05:02:09 PM 41.4347 -95.5739 269° West 408 470 43,000  Level Minneapolis Center
Wed 05:03:11 PM 41.4336 -95.7208 269° West 413 475 43,000  Level Minneapolis Center
Wed 05:04:13 PM 41.4331 -95.8719 270° West 409 471 43,000  Level Minneapolis Center
Wed 05:05:15 PM 41.4306 -96.0250 269° West 413 475 43,000  Level Minneapolis Center
Wed 05:06:17 PM 41.4283 -96.1781 269° West 412 474 43,000  Level Minneapolis Center
Wed 05:07:19 PM 41.4264 -96.3547 269° West 414 476 43,000  Level Minneapolis Center
Wed 05:08:21 PM 41.4233 -96.5053 268° West 409 471 43,000  Level Minneapolis Center
Wed 05:09:23 PM 41.4206 -96.6581 269° West 414 476 43,000  Level Minneapolis Center
Wed 05:10:25 PM 41.4181 -96.7808 268° West 414 476 43,000  Level Minneapolis Center
Wed 05:11:27 PM 41.4133 -96.9939 268° West 412 474 43,000  Level Minneapolis Center
Wed 05:12:30 PM 41.4094 -97.1481 268° West 416 479 43,000  Level Minneapolis Center
Wed 05:13:32 PM 41.4056 -97.2997 268° West 412 474 43,000  Level Minneapolis Center
Wed 05:14:34 PM 41.4019 -97.4561 268° West 419 482 43,000  Level Minneapolis Center
Wed 05:15:36 PM 41.3981 -97.6094 268° West 417 480 43,000  Level Minneapolis Center
Wed 05:16:38 PM 41.3933 -97.7647 268° West 419 482 43,000  Level Minneapolis Center
Wed 05:17:40 PM 41.3897 -97.9194 268° West 419 482 43,000  Level Minneapolis Center
Wed 05:18:42 PM 41.3839 -98.1061 268° West 420 483 43,000  Level Minneapolis Center
Wed 05:19:44 PM 41.3786 -98.2686 268° West 419 482 43,000  Level Minneapolis Center
Wed 05:20:46 PM 41.3736 -98.4233 268° West 420 483 43,000  Level Minneapolis Center
Wed 05:21:48 PM 41.3669 -98.5708 267° West 420 483 43,000  Level Minneapolis Center
Wed 05:22:50 PM 41.3594 -98.7256 266° West 420 483 43,000  Level Minneapolis Center
Wed 05:23:52 PM 41.3522 -98.8806 266° West 420 483 43,000  Level Minneapolis Center
Wed 05:24:44 PM 41.3469 -99.0367 267° West 420 483 43,000  Level Denver Center
Wed 05:25:46 PM 41.3392 -99.1894 266° West 418 481 43,000  Level Denver Center
Wed 05:26:48 PM 41.3328 -99.3444 267° West 420 483 43,000  Level Denver Center
Wed 05:27:49 PM 41.3261 -99.4736 266° West 420 483 43,000  Level Denver Center
Wed 05:28:52 PM 41.3156 -99.6708 266° West 420 483 43,000  Level Denver Center
Wed 05:29:53 PM 41.3078 -99.8178 266° West 418 481 43,000  Level Denver Center
Wed 05:30:55 PM 41.2992 -99.9903 266° West 420 483 43,000  Level Denver Center
Wed 05:31:57 PM 41.2911 -100.1372 266° West 419 482 43,000  Level Denver Center
Wed 05:33:11 PM 41.2811 -100.3092 266° West 418 481 43,000  Level Denver Center
Wed 05:34:13 PM 41.2703 -100.5050 266° West 419 482 43,000  Level Denver Center
Wed 05:35:15 PM 41.2608 -100.6519 265° West 420 483 43,000  Level Denver Center
Wed 05:36:16 PM 41.2503 -100.8244 265° West 422 486 43,000  Level Denver Center
Wed 05:37:18 PM 41.2408 -100.9719 265° West 423 487 43,000  Level Denver Center
Wed 05:38:20 PM 41.2297 -101.1444 265° West 422 486 43,000  Level Denver Center
Wed 05:39:22 PM 41.2119 -101.2917 261° West 423 487 43,000  Level Denver Center
Wed 05:40:24 PM 41.1778 -101.4594 255° West 425 489 43,000  Level Denver Center
Wed 05:41:26 PM 41.1483 -101.6039 255° West 427 491 43,000  Level Denver Center
Wed 05:42:27 PM 41.1192 -101.7483 255° West 425 489 43,000 -537 Level Denver Center
Wed 05:43:29 PM 41.0847 -101.9161 255° West 424 488 41,900 -1,210 Descending Denver Center
Wed 05:44:31 PM 41.0539 -102.0586 254° West 423 487 40,500 -1,368 Descending Denver Center
Wed 05:45:45 PM 41.0194 -102.2267 255° West 424 488 38,800 -1,456 Descending Denver Center
Wed 05:46:47 PM 40.9836 -102.3922 254° West 421 484 37,200 -1,597 Descending Denver Center
Wed 05:47:49 PM 40.9381 -102.5561 250° West 425 489 35,500 -1,512 Descending Denver Center
Wed 05:48:50 PM 40.8967 -102.6994 249° West 434 499 34,100 -1,463 Descending Denver Center
Wed 05:49:52 PM 40.8472 -102.8661 249° West 436 502 32,500 -1,210 Descending Denver Center
Wed 05:50:54 PM 40.8044 -103.0097 249° West 412 474 31,600 -1,065 Descending Denver Center
Wed 05:51:56 PM 40.7492 -103.1267 238° Southwest 392 451 30,300 -1,597 Descending Denver Center
Wed 05:52:58 PM 40.6944 -103.2450 239° Southwest 367 422 28,300 -1,805 Descending Denver Center
Wed 05:53:59 PM 40.6519 -103.3278 236° Southwest 349 402 26,600 -2,098 Descending Denver Center
Wed 05:55:01 PM 40.5844 -103.4619 237° Southwest 333 383 24,000 -1,984 Descending Denver Center
Wed 05:56:03 PM 40.6128 -103.5633 290° West 309 356 22,500 -1,258 Descending Denver Center
Wed 05:57:05 PM 40.6303 -103.6828 281° West 295 339 21,400 -1,306 Descending Denver Center
Wed 05:58:07 PM 40.5947 -103.7831 245° Southwest 323 372 19,800 -1,790 Descending Denver Center
Wed 05:59:09 PM 40.5306 -103.8522 219° Southwest 314 361 17,700 -1,355 Descending Denver Center
Wed 06:00:11 PM 40.4472 -103.9253 214° Southwest 319 367 17,000 -309 Descending Denver Center
Wed 06:01:25 PM 40.3694 -103.9953 214° Southwest 334 384 17,000 -397 Level Denver Center
Wed 06:02:27 PM 40.3367 -104.1356 253° West 334 384 16,100 -484 Descending Denver Center
Wed 06:03:29 PM 40.3150 -104.2564 257° West 322 371 16,000 -435 Descending Denver Center
Wed 06:04:31 PM 40.2947 -104.3744 257° West 330 380 15,200 -435 Descending Denver Center
Wed 06:05:33 PM 40.2878 -104.4919 266° West 328 377 15,100 -97 Descending Denver Center
Wed 06:06:35 PM 40.3158 -104.6100 287° West 316 364 15,000 -515 Descending Denver Center
Wed 06:08:16 PM 40.3000 -104.7667 263° West 266 306 13,700 -882 Descending Denver TRACON
Wed 06:08:51 PM 40.2689 -104.8039 222° Southwest 270 311 13,000 -1,546 Descending Denver Center
Wed 06:09:53 PM 40.2050 -104.8650 216° Southwest 266 306 11,200 -968 Descending Denver Center
Wed 06:10:55 PM 40.1472 -104.9200 216° Southwest 260 299 11,000 -968 Descending Denver Center
Wed 06:11:57 PM 40.0764 -104.9489 197° South 264 304 9,200 -1,171 Descending Denver Center
Wed 06:12:58 PM 40.0264 -105.0064 221° Southwest 242 278 8,600 -585 Descending Denver Center
Wed 06:14:00 PM 40.0008 -105.0697 242° Southwest 206 237 8,000 -726 Descending Denver Center
Wed 06:15:02 PM 39.9822 -105.1319 249° West 176 203 7,100 -581 Descending Denver Center
Wed 06:16:04 PM 39.9447 -105.1536 204° Southwest 154 177 6,800 -629 Descending Denver Center
Wed 06:17:06 PM 39.9169 -105.1342 152° Southeast 112 129 5,800 -968 Descending Denver Center
Wed 06:19:00 PM 39.9000 -105.1167 169° South  Level FlightAware Approximate

Login

Don't have an account? Register now (free) for customized features, flight alerts, and more!